createdAt,value
2022-10-17T00:01:08.489Z,11.30
2022-10-17T00:03:38.003Z,11.20
2022-10-17T00:06:08.644Z,11.20
2022-10-17T00:08:38.241Z,11.60
2022-10-17T00:11:09.434Z,11.60
2022-10-17T00:13:37.349Z,10.80
2022-10-17T00:16:06.149Z,11.30
2022-10-17T00:18:34.037Z,11.80
2022-10-17T00:21:01.926Z,10.50
2022-10-17T00:23:30.575Z,9.90
2022-10-17T00:26:00.613Z,11.00
2022-10-17T00:28:28.797Z,10.70
2022-10-17T00:30:58.733Z,11.80
2022-10-17T00:33:27.741Z,10.80
2022-10-17T00:36:17.896Z,11.10
2022-10-17T00:38:47.825Z,11.20
2022-10-17T00:41:19.075Z,10.60
2022-10-17T00:44:01.588Z,11.90
2022-10-17T00:46:35.009Z,11.60
2022-10-17T00:49:07.623Z,11.10
2022-10-17T00:51:45.365Z,11.60
2022-10-17T00:54:16.260Z,10.40
2022-10-17T00:56:46.976Z,10.90
2022-10-17T00:59:17.158Z,11.10
2022-10-17T01:01:52.697Z,10.20
2022-10-17T01:04:20.975Z,10.90
2022-10-17T01:06:48.711Z,11.50
2022-10-17T01:09:16.617Z,10.80
2022-10-17T01:11:49.870Z,10.30
2022-10-17T01:14:45.807Z,10.90
2022-10-17T01:17:46.621Z,10.80
2022-10-17T01:20:45.462Z,10.80
2022-10-17T01:23:36.596Z,11.40
2022-10-17T01:26:13.332Z,10.80
2022-10-17T01:29:02.580Z,11.00
2022-10-17T01:31:47.778Z,10.60
2022-10-17T01:34:21.294Z,10.20
2022-10-17T01:36:59.084Z,12.00
2022-10-17T01:39:50.409Z,11.70
2022-10-17T01:42:18.351Z,10.50
2022-10-17T01:45:12.636Z,11.00
2022-10-17T01:47:42.782Z,11.00
2022-10-17T01:50:17.722Z,10.60
2022-10-17T01:52:55.617Z,10.40
2022-10-17T01:55:30.827Z,10.70
2022-10-17T01:58:13.824Z,11.30
2022-10-17T02:00:44.063Z,9.60
2022-10-17T02:03:17.820Z,10.00
2022-10-17T02:05:46.680Z,10.00
2022-10-17T02:08:24.451Z,9.90
2022-10-17T02:10:58.386Z,9.80
2022-10-17T02:13:40.307Z,9.90
2022-10-17T02:16:26.443Z,9.40
2022-10-17T02:19:02.075Z,10.50
2022-10-17T02:21:32.808Z,9.70
2022-10-17T02:24:26.639Z,9.90
2022-10-17T02:27:10.655Z,9.30
2022-10-17T02:29:52.185Z,9.70
2022-10-17T02:32:27.526Z,10.00
2022-10-17T02:34:58.735Z,9.80
2022-10-17T02:37:30.355Z,9.70
2022-10-17T02:40:00.968Z,9.10
2022-10-17T02:42:31.175Z,9.00
2022-10-17T02:45:01.996Z,8.80
2022-10-17T02:47:34.615Z,9.70
2022-10-17T02:50:02.541Z,9.60
2022-10-17T02:52:30.758Z,9.90
2022-10-17T02:55:05.137Z,8.80
2022-10-17T02:57:45.174Z,9.40
2022-10-17T03:00:15.690Z,9.80
2022-10-17T03:02:46.368Z,9.50
2022-10-17T03:05:21.143Z,10.20
2022-10-17T03:07:49.234Z,10.70
2022-10-17T03:10:17.644Z,10.80
2022-10-17T03:12:45.726Z,9.30
2022-10-17T03:15:13.890Z,9.30
2022-10-17T03:17:41.820Z,9.50
2022-10-17T03:20:10.118Z,9.50
2022-10-17T03:22:38.209Z,8.70
2022-10-17T03:25:06.179Z,9.90
2022-10-17T03:27:33.949Z,10.50
2022-10-17T03:30:01.875Z,9.10
2022-10-17T03:32:29.745Z,9.40
2022-10-17T03:34:57.563Z,9.00
2022-10-17T03:37:25.859Z,8.90
2022-10-17T03:39:53.789Z,9.80
2022-10-17T03:42:21.574Z,10.00
2022-10-17T03:44:49.416Z,9.30
2022-10-17T03:47:17.288Z,8.60
2022-10-17T03:49:45.108Z,8.70
2022-10-17T03:52:13.516Z,9.80
2022-10-17T03:54:41.392Z,9.70
2022-10-17T03:57:09.178Z,9.00
2022-10-17T03:59:37.122Z,9.70
2022-10-17T04:02:04.893Z,9.60
2022-10-17T04:04:32.756Z,8.90
2022-10-17T04:07:00.725Z,9.00
2022-10-17T04:09:28.691Z,9.80
2022-10-17T04:11:56.486Z,9.40
2022-10-17T04:14:24.260Z,10.90
2022-10-17T04:16:53.565Z,9.90
2022-10-17T04:19:21.404Z,9.50
2022-10-17T04:21:49.164Z,10.40
2022-10-17T04:24:17.133Z,9.80
2022-10-17T04:26:44.996Z,10.40
2022-10-17T04:29:12.823Z,9.70
2022-10-17T04:31:40.782Z,10.90
2022-10-17T04:34:08.696Z,10.40
2022-10-17T04:36:36.475Z,10.10
2022-10-17T04:39:05.926Z,11.30
2022-10-17T04:41:33.898Z,10.90
2022-10-17T04:44:01.615Z,11.20
2022-10-17T04:46:29.520Z,9.80
2022-10-17T04:48:57.395Z,9.30
2022-10-17T04:51:26.604Z,9.20
2022-10-17T04:53:55.067Z,9.50
2022-10-17T04:56:24.686Z,9.50
2022-10-17T04:58:52.808Z,10.90
2022-10-17T05:01:22.554Z,10.30
2022-10-17T05:03:50.558Z,10.60
2022-10-17T05:06:23.973Z,11.20
2022-10-17T05:08:51.952Z,11.70
2022-10-17T05:11:25.612Z,10.50
2022-10-17T05:14:02.160Z,11.10
2022-10-17T05:16:30.941Z,11.30
2022-10-17T05:18:59.083Z,9.60
2022-10-17T05:21:28.972Z,9.90
2022-10-17T05:23:57.302Z,10.40
2022-10-17T05:26:25.883Z,9.50
2022-10-17T05:28:55.024Z,10.40
2022-10-17T05:31:23.168Z,9.30
2022-10-17T05:33:51.072Z,10.00
2022-10-17T05:36:19.093Z,9.50
2022-10-17T05:38:51.452Z,9.30
2022-10-17T05:41:20.511Z,9.90
2022-10-17T05:43:50.425Z,9.90
2022-10-17T05:46:18.195Z,9.60
2022-10-17T05:48:45.983Z,9.00
2022-10-17T05:51:13.739Z,9.20
2022-10-17T05:53:42.243Z,9.90
2022-10-17T05:56:12.452Z,9.80
2022-10-17T05:58:50.408Z,9.70
2022-10-17T06:01:19.763Z,10.20
2022-10-17T06:03:47.729Z,11.40
2022-10-17T06:06:16.766Z,10.70
2022-10-17T06:08:45.108Z,11.10
2022-10-17T06:11:13.276Z,11.70
2022-10-17T06:13:41.761Z,12.00
2022-10-17T06:16:09.601Z,11.40
2022-10-17T06:18:37.391Z,11.30
2022-10-17T06:21:07.820Z,11.30
2022-10-17T06:23:35.755Z,11.90
2022-10-17T06:26:05.715Z,11.10
2022-10-17T06:28:34.753Z,13.00
2022-10-17T06:31:11.719Z,12.10
2022-10-17T06:33:40.053Z,11.40
2022-10-17T06:36:12.378Z,11.70
2022-10-17T06:38:40.801Z,10.50
2022-10-17T06:41:13.747Z,12.60
2022-10-17T06:43:45.684Z,13.90
2022-10-17T06:46:15.918Z,16.00
2022-10-17T06:48:44.962Z,15.30
2022-10-17T06:51:13.235Z,15.60
2022-10-17T06:53:41.092Z,15.50
2022-10-17T06:56:10.445Z,16.20
2022-10-17T06:58:40.428Z,16.20
2022-10-17T07:01:11.586Z,15.70
2022-10-17T07:03:41.024Z,16.00
2022-10-17T07:06:10.822Z,16.30
2022-10-17T07:08:43.640Z,15.90
2022-10-17T07:11:17.216Z,14.80
2022-10-17T07:13:45.243Z,15.00
2022-10-17T07:16:14.080Z,15.40
2022-10-17T07:18:42.571Z,16.80
2022-10-17T07:21:10.633Z,16.70
2022-10-17T07:23:38.709Z,17.00
2022-10-17T07:26:10.990Z,17.70
2022-10-17T07:28:41.007Z,16.90
2022-10-17T07:31:16.244Z,17.70
2022-10-17T07:36:18.756Z,16.80
2022-10-17T07:38:46.607Z,16.50
2022-10-17T07:41:17.924Z,16.50
2022-10-17T07:43:49.261Z,14.90
2022-10-17T07:46:17.721Z,15.30
2022-10-17T07:48:45.505Z,16.50
2022-10-17T07:51:13.292Z,17.40
2022-10-17T07:53:46.356Z,16.10
2022-10-17T07:56:17.012Z,16.30
2022-10-17T07:58:45.004Z,15.70
2022-10-17T08:01:15.609Z,15.30
2022-10-17T08:03:45.440Z,16.10
2022-10-17T08:06:14.776Z,16.00
2022-10-17T08:08:43.072Z,16.90
2022-10-17T08:11:12.677Z,16.70
2022-10-17T08:13:41.529Z,16.60
2022-10-17T08:16:12.322Z,16.10
2022-10-17T08:18:41.968Z,16.70
2022-10-17T08:21:11.067Z,16.60
2022-10-17T08:23:38.997Z,17.30
2022-10-17T08:26:10.479Z,17.00
2022-10-17T08:28:39.800Z,15.90
2022-10-17T08:31:10.353Z,17.70
2022-10-17T08:33:38.344Z,17.80
2022-10-17T08:36:07.303Z,17.20
2022-10-17T08:38:36.913Z,17.00
2022-10-17T08:41:14.428Z,17.40
2022-10-17T08:43:42.111Z,17.80
2022-10-17T08:46:10.285Z,15.90
2022-10-17T08:48:45.604Z,17.00
2022-10-17T08:51:35.954Z,16.70
2022-10-17T08:54:15.071Z,15.90
2022-10-17T08:56:49.615Z,15.10
2022-10-17T08:59:21.597Z,13.90
2022-10-17T09:02:31.776Z,14.30
2022-10-17T09:05:26.537Z,13.60
2022-10-17T09:08:28.915Z,14.50
2022-10-17T09:11:18.206Z,14.60
2022-10-17T09:14:10.553Z,14.60
2022-10-17T09:16:57.194Z,15.10
2022-10-17T09:19:36.858Z,14.90
2022-10-17T09:22:12.864Z,14.10
2022-10-17T09:24:45.420Z,15.50
2022-10-17T09:27:27.560Z,16.60
2022-10-17T09:30:26.826Z,16.10
2022-10-17T09:33:10.850Z,16.00
2022-10-17T09:35:44.334Z,17.40
2022-10-17T09:38:18.157Z,18.30
2022-10-17T09:40:57.114Z,18.40
2022-10-17T09:43:25.584Z,18.40
2022-10-17T09:46:11.245Z,16.70
2022-10-17T09:48:46.929Z,17.10
2022-10-17T09:51:25.658Z,16.80
2022-10-17T09:53:59.813Z,17.20
2022-10-17T09:56:27.633Z,16.70
2022-10-17T09:58:59.069Z,16.70
2022-10-17T10:01:29.876Z,16.00
2022-10-17T10:04:16.108Z,16.70
2022-10-17T10:07:05.819Z,17.80
2022-10-17T10:09:39.371Z,17.10
2022-10-17T10:12:26.925Z,16.10
2022-10-17T10:14:55.837Z,17.80
2022-10-17T10:17:42.531Z,16.30
2022-10-17T10:20:33.109Z,16.00
2022-10-17T10:23:13.892Z,14.90
2022-10-17T10:26:03.329Z,14.40
2022-10-17T10:28:34.107Z,14.80
2022-10-17T10:31:08.149Z,15.90
2022-10-17T10:33:41.955Z,14.80
2022-10-17T10:38:41.007Z,15.00
2022-10-17T10:41:11.618Z,15.60
2022-10-17T10:43:46.570Z,16.20
2022-10-17T10:46:28.812Z,14.00
2022-10-17T10:49:00.322Z,14.70
2022-10-17T10:51:38.025Z,14.50
2022-10-17T10:54:10.279Z,13.30
2022-10-17T10:56:43.899Z,15.00
2022-10-17T10:59:21.161Z,14.60
2022-10-17T11:01:56.851Z,14.40
2022-10-17T11:04:51.192Z,14.50
2022-10-17T11:10:08.107Z,13.90
2022-10-17T11:12:48.653Z,15.20
2022-10-17T11:15:25.413Z,12.70
2022-10-17T11:18:02.932Z,13.00
2022-10-17T11:20:38.521Z,14.90
2022-10-17T11:23:28.056Z,13.10
2022-10-17T11:26:01.592Z,11.90
2022-10-17T11:28:29.726Z,11.20
2022-10-17T11:31:07.980Z,11.60
2022-10-17T11:33:54.804Z,11.30
2022-10-17T11:36:28.510Z,10.60
2022-10-17T11:39:08.969Z,10.20
2022-10-17T11:41:48.892Z,10.00
2022-10-17T11:44:36.353Z,10.80
2022-10-17T11:47:52.055Z,10.10
2022-10-17T11:53:28.679Z,9.40
2022-10-17T11:55:58.904Z,9.70
2022-10-17T11:59:15.592Z,10.10
2022-10-17T12:02:01.853Z,9.30
2022-10-17T12:04:49.669Z,8.80
2022-10-17T12:07:22.484Z,9.70
2022-10-17T12:10:00.750Z,9.00
2022-10-17T12:12:32.176Z,9.20
2022-10-17T12:15:26.293Z,8.90
2022-10-17T12:17:55.528Z,8.10
2022-10-17T12:20:28.880Z,8.10
2022-10-17T12:23:11.968Z,9.10
2022-10-17T12:26:04.729Z,8.10
2022-10-17T12:28:48.282Z,8.60
2022-10-17T12:31:15.985Z,8.50
2022-10-17T12:33:46.888Z,7.80
2022-10-17T12:36:27.037Z,6.30
2022-10-17T12:39:03.720Z,7.10
2022-10-17T12:41:40.751Z,7.20
2022-10-17T12:44:14.737Z,7.10
2022-10-17T12:46:52.171Z,7.60
2022-10-17T12:49:38.967Z,8.80
2022-10-17T12:52:36.774Z,7.50
2022-10-17T12:55:14.191Z,8.00
2022-10-17T12:57:49.461Z,7.20
2022-10-17T13:00:43.852Z,6.30
2022-10-17T13:03:24.150Z,6.70
2022-10-17T13:05:55.665Z,7.00
2022-10-17T13:08:28.827Z,6.10
2022-10-17T13:10:57.456Z,6.20
2022-10-17T13:13:37.483Z,7.20
2022-10-17T13:16:05.476Z,6.40
2022-10-17T13:18:36.065Z,5.70
2022-10-17T13:21:06.016Z,5.80
2022-10-17T13:23:38.294Z,6.30
2022-10-17T13:26:26.689Z,5.60
2022-10-17T13:29:15.677Z,5.80
2022-10-17T13:31:44.884Z,5.60
2022-10-17T13:34:24.628Z,5.40
2022-10-17T13:36:58.065Z,6.50
2022-10-17T13:39:52.529Z,6.70
2022-10-17T13:42:38.519Z,6.10
2022-10-17T13:45:18.955Z,5.80
2022-10-17T13:47:47.404Z,6.10
2022-10-17T13:50:44.599Z,6.10
2022-10-17T13:53:17.395Z,6.00
2022-10-17T13:56:26.475Z,6.10
2022-10-17T13:58:51.741Z,6.50
2022-10-17T14:01:21.653Z,6.00
2022-10-17T14:03:57.068Z,6.30
2022-10-17T14:06:31.289Z,6.20
2022-10-17T14:09:02.739Z,5.20
2022-10-17T14:11:41.014Z,5.60
2022-10-17T14:14:22.272Z,6.10
2022-10-17T14:16:50.244Z,6.00
2022-10-17T14:19:30.420Z,5.20
2022-10-17T14:22:21.399Z,6.50
2022-10-17T14:24:50.716Z,6.40
2022-10-17T14:27:36.187Z,6.60
2022-10-17T14:30:51.671Z,6.60
2022-10-17T14:33:30.527Z,6.10
2022-10-17T14:36:00.812Z,7.00
2022-10-17T14:38:30.263Z,6.70
2022-10-17T14:41:30.542Z,7.10
2022-10-17T14:44:16.129Z,6.30
2022-10-17T14:46:50.477Z,7.20
2022-10-17T14:49:52.163Z,6.60
2022-10-17T14:52:19.963Z,6.20
2022-10-17T14:54:49.699Z,6.10
2022-10-17T14:57:40.899Z,6.40
2022-10-17T15:00:14.150Z,6.30
2022-10-17T15:02:42.524Z,6.00
2022-10-17T15:05:13.283Z,5.80
2022-10-17T15:07:42.612Z,6.40
2022-10-17T15:10:32.943Z,7.20
2022-10-17T15:13:27.598Z,7.60
2022-10-17T15:15:52.239Z,7.70
2022-10-17T15:18:20.377Z,7.10
2022-10-17T15:20:52.672Z,6.90
2022-10-17T15:23:28.791Z,6.40
2022-10-17T15:25:56.575Z,6.90
2022-10-17T15:28:24.419Z,6.60
2022-10-17T15:30:52.240Z,7.10
2022-10-17T15:33:20.200Z,7.30
2022-10-17T15:35:48.143Z,8.40
2022-10-17T15:38:18.159Z,9.60
2022-10-17T15:40:49.178Z,12.80
2022-10-17T15:43:19.845Z,12.50
2022-10-17T15:45:48.705Z,13.00
2022-10-17T15:48:24.588Z,11.50
2022-10-17T15:50:52.578Z,11.80
2022-10-17T15:53:20.304Z,11.50
2022-10-17T15:55:51.101Z,11.50
2022-10-17T15:58:19.849Z,12.00
2022-10-17T16:00:48.463Z,12.90
2022-10-17T16:03:16.507Z,12.00
2022-10-17T16:05:44.266Z,12.20
2022-10-17T16:08:12.071Z,10.60
2022-10-17T16:10:40.926Z,10.20
2022-10-17T16:13:21.142Z,10.10
2022-10-17T16:15:49.351Z,10.10
2022-10-17T16:18:17.339Z,11.60
2022-10-17T16:20:45.231Z,11.20
2022-10-17T16:23:14.094Z,12.10
2022-10-17T16:25:42.148Z,11.80
2022-10-17T16:28:11.967Z,12.20
2022-10-17T16:30:43.105Z,14.50
2022-10-17T16:33:11.808Z,14.20
2022-10-17T16:35:39.766Z,13.80
2022-10-17T16:38:08.145Z,13.30
2022-10-17T16:40:38.558Z,13.20
2022-10-17T16:43:06.982Z,13.60
2022-10-17T16:45:36.317Z,13.30
2022-10-17T16:48:04.225Z,13.40
2022-10-17T16:50:35.474Z,13.40
2022-10-17T16:53:04.018Z,14.80
2022-10-17T16:55:31.920Z,14.90
2022-10-17T16:58:00.223Z,13.50
2022-10-17T17:00:28.306Z,14.90
2022-10-17T17:02:56.139Z,13.60
2022-10-17T17:05:24.006Z,13.90
2022-10-17T17:07:51.742Z,14.30
2022-10-17T17:10:19.466Z,14.10
2022-10-17T17:12:47.345Z,14.50
2022-10-17T17:15:15.242Z,15.20
2022-10-17T17:17:50.525Z,19.10
2022-10-17T17:20:23.698Z,20.60
2022-10-17T17:22:52.512Z,19.30
2022-10-17T17:25:22.039Z,19.30
2022-10-17T17:27:49.946Z,19.20
2022-10-17T17:30:18.046Z,17.20
2022-10-17T17:32:45.855Z,16.20
2022-10-17T17:35:13.697Z,16.00
2022-10-17T17:37:41.453Z,15.40
2022-10-17T17:40:10.166Z,17.00
2022-10-17T17:42:38.052Z,15.50
2022-10-17T17:45:06.473Z,15.30
2022-10-17T17:47:34.304Z,14.70
2022-10-17T17:50:03.425Z,15.20
2022-10-17T17:52:31.655Z,15.70
2022-10-17T17:54:59.661Z,15.80
2022-10-17T17:57:29.515Z,16.70
2022-10-17T17:59:57.239Z,15.50
2022-10-17T18:02:25.032Z,14.90
2022-10-17T18:04:52.966Z,14.80
2022-10-17T18:07:20.716Z,14.50
2022-10-17T18:09:49.293Z,15.40
2022-10-17T18:12:17.403Z,14.70
2022-10-17T18:14:45.319Z,15.40
2022-10-17T18:17:13.205Z,15.60
2022-10-17T18:19:41.026Z,14.50
2022-10-17T18:22:09.490Z,13.50
2022-10-17T18:24:37.297Z,14.70
2022-10-17T18:27:05.164Z,14.20
2022-10-17T18:29:33.465Z,15.80
2022-10-17T18:32:01.376Z,14.50
2022-10-17T18:34:29.343Z,14.90
2022-10-17T18:36:57.773Z,15.20
2022-10-17T18:39:25.876Z,14.90
2022-10-17T18:41:53.693Z,15.30
2022-10-17T18:44:22.021Z,16.40
2022-10-17T18:46:50.022Z,16.40
2022-10-17T18:49:20.175Z,14.80
2022-10-17T18:51:48.118Z,14.60
2022-10-17T18:54:20.738Z,13.90
2022-10-17T18:56:53.613Z,14.60
2022-10-17T18:59:22.224Z,14.80
2022-10-17T19:01:50.162Z,14.80
2022-10-17T19:04:18.172Z,14.30
2022-10-17T19:06:46.128Z,13.60
2022-10-17T19:09:14.825Z,13.60
2022-10-17T19:11:43.183Z,13.00
2022-10-17T19:14:13.579Z,13.50
2022-10-17T19:16:46.094Z,11.80
2022-10-17T19:19:15.104Z,12.00
2022-10-17T19:21:44.200Z,12.40
2022-10-17T19:24:16.716Z,11.60
2022-10-17T19:26:47.381Z,12.30
2022-10-17T19:29:17.058Z,11.70
2022-10-17T19:31:45.652Z,12.10
2022-10-17T19:34:14.595Z,11.40
2022-10-17T19:36:42.954Z,11.20
2022-10-17T19:39:14.025Z,11.10
2022-10-17T19:41:44.677Z,12.30
2022-10-17T19:44:13.708Z,11.50
2022-10-17T19:46:41.609Z,12.20
2022-10-17T19:49:11.237Z,11.80
2022-10-17T19:51:39.757Z,11.10
2022-10-17T19:54:07.532Z,11.60
2022-10-17T19:56:38.926Z,12.10
2022-10-17T19:59:08.450Z,12.50
2022-10-17T20:01:40.425Z,12.80
2022-10-17T20:04:10.786Z,13.80
2022-10-17T20:06:39.910Z,15.30
2022-10-17T20:09:11.033Z,14.60
2022-10-17T20:11:41.902Z,14.80
2022-10-17T20:14:09.892Z,14.40
2022-10-17T20:16:37.779Z,14.50
2022-10-17T20:19:09.175Z,14.10
2022-10-17T20:21:39.647Z,14.30
2022-10-17T20:24:11.176Z,15.10
2022-10-17T20:26:40.053Z,14.80
2022-10-17T20:29:13.490Z,15.60
2022-10-17T20:31:43.627Z,14.90
2022-10-17T20:34:14.212Z,15.00
2022-10-17T20:36:42.705Z,12.60
2022-10-17T20:39:13.049Z,14.90
2022-10-17T20:41:41.752Z,14.00
2022-10-17T20:44:10.587Z,13.70
2022-10-17T20:46:45.332Z,12.80
2022-10-17T20:49:20.864Z,13.40
2022-10-17T20:51:48.660Z,13.60
2022-10-17T20:54:16.417Z,13.10
2022-10-17T20:56:44.188Z,13.20
2022-10-17T20:59:16.180Z,14.50
2022-10-17T21:01:45.442Z,13.90
2022-10-17T21:04:44.204Z,15.50
2022-10-17T21:07:01.792Z,15.30
2022-10-17T21:09:29.728Z,14.40
2022-10-17T21:11:57.611Z,15.90
2022-10-17T21:14:25.680Z,16.10
2022-10-17T21:16:53.664Z,16.10
2022-10-17T21:19:21.929Z,14.70
2022-10-17T21:21:50.546Z,16.30
2022-10-17T21:24:20.679Z,15.80
2022-10-17T21:26:55.424Z,14.80
2022-10-17T21:29:23.944Z,16.70
2022-10-17T21:31:52.842Z,16.30
2022-10-17T21:34:23.965Z,15.60
2022-10-17T21:36:52.290Z,16.80
2022-10-17T21:39:21.936Z,15.60
2022-10-17T21:41:49.877Z,16.40
2022-10-17T21:44:20.587Z,15.30
2022-10-17T21:46:48.949Z,16.00
2022-10-17T21:49:19.468Z,16.00
2022-10-17T21:51:48.563Z,17.80
2022-10-17T21:54:18.426Z,16.40
2022-10-17T21:56:46.737Z,15.30
2022-10-17T21:59:14.808Z,17.40
2022-10-17T22:01:45.031Z,16.40
2022-10-17T22:04:17.791Z,16.90
2022-10-17T22:06:47.810Z,16.30
2022-10-17T22:09:19.613Z,16.90
2022-10-17T22:11:50.150Z,16.50
2022-10-17T22:14:20.057Z,16.20
2022-10-17T22:16:49.088Z,14.80
2022-10-17T22:19:20.348Z,16.50
2022-10-17T22:21:48.829Z,15.90
2022-10-17T22:24:19.012Z,17.20
2022-10-17T22:26:47.367Z,16.50
2022-10-17T22:29:15.204Z,15.90
2022-10-17T22:31:43.360Z,16.30
2022-10-17T22:34:13.824Z,15.60
2022-10-17T22:36:42.195Z,15.90
2022-10-17T22:39:11.088Z,15.80
2022-10-17T22:41:38.880Z,15.80
2022-10-17T22:44:06.844Z,16.20
2022-10-17T22:46:34.900Z,14.90
2022-10-17T22:49:03.295Z,14.80
2022-10-17T22:51:32.270Z,15.30
2022-10-17T22:54:00.022Z,14.40
2022-10-17T22:56:27.893Z,14.10
2022-10-17T22:58:55.658Z,14.10
2022-10-17T23:01:25.491Z,14.10
2022-10-17T23:03:53.474Z,14.00
2022-10-17T23:06:21.676Z,13.70
2022-10-17T23:08:49.890Z,13.50
2022-10-17T23:11:17.896Z,13.00
2022-10-17T23:13:45.656Z,12.00
2022-10-17T23:16:13.836Z,13.60
2022-10-17T23:18:41.850Z,12.90
2022-10-17T23:21:10.039Z,12.60
2022-10-17T23:23:38.771Z,12.80
2022-10-17T23:26:09.632Z,13.70
2022-10-17T23:28:38.026Z,13.30
2022-10-17T23:31:24.065Z,14.90
2022-10-17T23:33:51.838Z,13.70
2022-10-17T23:36:20.598Z,15.00
2022-10-17T23:38:49.118Z,14.20
2022-10-17T23:41:17.379Z,13.80
2022-10-17T23:43:45.373Z,13.80
2022-10-17T23:46:13.720Z,13.40
2022-10-17T23:48:41.834Z,13.80
2022-10-17T23:51:10.772Z,13.20
2022-10-17T23:53:39.409Z,15.10
2022-10-17T23:56:08.251Z,15.00
2022-10-17T23:58:36.758Z,13.20
